createdAt,value
2019-03-04T00:01:40.308Z,99092.24
2019-03-04T00:04:11.795Z,99093.66
2019-03-04T00:06:43.256Z,99088.05
2019-03-04T00:09:14.690Z,99081.75
2019-03-04T00:11:46.145Z,99074.69
2019-03-04T00:14:17.591Z,99072.17
2019-03-04T00:16:49.257Z,99075.55
2019-03-04T00:19:20.598Z,99066.41
2019-03-04T00:21:52.054Z,99079.94
2019-03-04T00:24:23.601Z,99078.37
2019-03-04T00:26:55.103Z,99078.64
2019-03-04T00:29:27.512Z,99066.77
2019-03-04T00:31:58.992Z,99062.45
2019-03-04T00:34:30.467Z,99060.27
2019-03-04T00:37:01.967Z,99058.05
2019-03-04T00:39:33.302Z,99064.16
2019-03-04T00:42:04.690Z,99064.77
2019-03-04T00:44:36.019Z,99068.47
2019-03-04T00:47:07.480Z,99067.02
2019-03-04T00:49:38.897Z,99062.38
2019-03-04T00:52:10.365Z,99060.10
2019-03-04T00:54:41.861Z,99057.10
2019-03-04T00:57:13.187Z,99064.37
2019-03-04T00:59:44.523Z,99052.17
2019-03-04T01:02:15.957Z,99057.78
2019-03-04T01:04:47.269Z,99046.08
2019-03-04T01:07:18.609Z,99028.94
2019-03-04T01:09:50.469Z,99029.35
2019-03-04T01:12:21.803Z,99023.20
2019-03-04T01:14:53.222Z,99017.33
2019-03-04T01:17:24.590Z,99018.21
2019-03-04T01:19:55.963Z,99012.45
2019-03-04T01:22:27.359Z,99005.64
2019-03-04T01:24:58.811Z,99008.27
2019-03-04T01:27:30.200Z,99004.22
2019-03-04T01:30:01.584Z,99004.05
2019-03-04T01:32:33.013Z,99004.85
2019-03-04T01:35:05.609Z,99002.77
2019-03-04T01:37:36.999Z,99005.16
2019-03-04T01:40:14.441Z,98996.31
2019-03-04T01:42:45.812Z,98989.09
2019-03-04T01:45:18.175Z,98975.81
2019-03-04T01:47:49.654Z,98981.34
2019-03-04T01:50:21.064Z,98967.75
2019-03-04T01:52:52.398Z,98972.59
2019-03-04T01:55:23.795Z,98971.56
2019-03-04T01:57:55.249Z,98971.39
2019-03-04T02:00:26.701Z,98961.43
2019-03-04T02:02:58.140Z,98963.83
2019-03-04T02:05:29.523Z,98963.22
2019-03-04T02:08:00.945Z,98947.83
2019-03-04T02:10:32.402Z,98949.78
2019-03-04T02:13:04.983Z,98951.20
2019-03-04T02:15:36.382Z,98951.95
2019-03-04T02:18:07.855Z,98951.81
2019-03-04T02:20:39.321Z,98953.88
2019-03-04T02:23:10.647Z,98956.37
2019-03-04T02:25:45.348Z,98954.58
2019-03-04T02:28:16.601Z,98951.00
2019-03-04T02:30:48.100Z,98950.55
2019-03-04T02:33:19.814Z,98948.53
2019-03-04T02:35:51.245Z,98947.08
2019-03-04T02:38:22.760Z,98941.08
2019-03-04T02:40:54.094Z,98941.97
2019-03-04T02:43:26.455Z,98939.43
2019-03-04T02:45:57.930Z,98940.75
2019-03-04T02:48:29.261Z,98938.03
2019-03-04T02:51:00.613Z,98937.06
2019-03-04T02:53:31.942Z,98929.45
2019-03-04T02:56:03.409Z,98932.20
2019-03-04T02:58:34.861Z,98933.15
2019-03-04T03:01:06.534Z,98936.72
2019-03-04T03:03:37.971Z,98925.70
2019-03-04T03:06:09.422Z,98934.42
2019-03-04T03:08:40.763Z,98930.80
2019-03-04T03:11:12.111Z,98926.52
2019-03-04T03:13:43.567Z,98925.34
2019-03-04T03:16:15.017Z,98924.54
2019-03-04T03:18:46.397Z,98921.02
2019-03-04T03:21:17.832Z,98922.56
2019-03-04T03:23:49.226Z,98914.47
2019-03-04T03:26:20.711Z,98921.02
2019-03-04T03:28:52.029Z,98912.64
2019-03-04T03:31:23.516Z,98911.87
2019-03-04T03:33:54.875Z,98914.66
2019-03-04T03:36:26.336Z,98915.08
2019-03-04T03:38:57.619Z,98917.52
2019-03-04T03:41:29.114Z,98905.99
2019-03-04T03:44:00.495Z,98906.84
2019-03-04T03:46:31.845Z,98906.94
2019-03-04T03:49:03.282Z,98897.47
2019-03-04T03:51:34.801Z,98894.55
2019-03-04T03:54:06.267Z,98881.80
2019-03-04T03:56:37.819Z,98864.09
2019-03-04T03:59:09.149Z,98867.80
2019-03-04T04:01:40.473Z,98865.28
2019-03-04T04:04:11.944Z,98860.22
2019-03-04T04:06:43.605Z,98851.53
2019-03-04T04:09:15.163Z,98851.13
2019-03-04T04:11:46.394Z,98849.18
2019-03-04T04:14:17.864Z,98838.71
2019-03-04T04:16:49.290Z,98838.71
2019-03-04T04:19:20.762Z,98834.67
2019-03-04T04:21:52.197Z,98832.80
2019-03-04T04:24:23.560Z,98833.75
2019-03-04T04:26:55.005Z,98831.55
2019-03-04T04:29:26.333Z,98826.97
2019-03-04T04:31:57.743Z,98812.64
2019-03-04T04:34:29.109Z,98818.43
2019-03-04T04:37:00.412Z,98813.29
2019-03-04T04:39:31.760Z,98813.75
2019-03-04T04:42:03.204Z,98807.78
2019-03-04T04:44:34.631Z,98802.81
2019-03-04T04:47:06.865Z,98806.97
2019-03-04T04:49:38.259Z,98809.94
2019-03-04T04:52:09.574Z,98801.95
2019-03-04T04:54:40.904Z,98806.17
2019-03-04T04:57:12.228Z,98808.59
2019-03-04T04:59:43.653Z,98811.45
2019-03-04T05:02:14.908Z,98807.48
2019-03-04T05:04:46.270Z,98804.91
2019-03-04T05:07:17.642Z,98798.81
2019-03-04T05:09:49.011Z,98791.42
2019-03-04T05:12:20.391Z,98796.11
2019-03-04T05:14:51.843Z,98793.09
2019-03-04T05:17:23.162Z,98788.41
2019-03-04T05:19:54.538Z,98796.13
2019-03-04T05:22:25.919Z,98801.41
2019-03-04T05:24:57.437Z,98796.28
2019-03-04T05:27:28.991Z,98798.98
2019-03-04T05:30:00.355Z,98801.14
2019-03-04T05:32:31.894Z,98806.51
2019-03-04T05:35:03.239Z,98809.45
2019-03-04T05:37:34.674Z,98807.83
2019-03-04T05:40:11.607Z,98813.79
2019-03-04T05:42:43.292Z,98807.17
2019-03-04T05:45:16.067Z,98808.04
2019-03-04T05:47:47.561Z,98810.95
2019-03-04T05:50:26.343Z,98810.95
2019-03-04T05:52:57.704Z,98799.42
2019-03-04T05:55:29.284Z,98795.94
2019-03-04T05:58:00.637Z,98794.33
2019-03-04T06:00:39.306Z,98789.69
2019-03-04T06:03:16.939Z,98783.91
2019-03-04T06:05:48.387Z,98791.47
2019-03-04T06:08:19.854Z,98791.00
2019-03-04T06:10:51.227Z,98789.63
2019-03-04T06:13:22.539Z,98791.41
2019-03-04T06:15:53.859Z,98787.47
2019-03-04T06:18:25.333Z,98792.97
2019-03-04T06:20:56.680Z,98789.16
2019-03-04T06:23:28.120Z,98784.95
2019-03-04T06:25:59.598Z,98775.95
2019-03-04T06:28:30.950Z,98772.02
2019-03-04T06:31:02.478Z,98773.95
2019-03-04T06:33:34.115Z,98775.55
2019-03-04T06:36:05.566Z,98763.84
2019-03-04T06:38:36.894Z,98755.95
2019-03-04T06:41:08.270Z,98752.16
2019-03-04T06:43:40.136Z,98751.75
2019-03-04T06:46:11.567Z,98758.24
2019-03-04T06:48:43.046Z,98742.63
2019-03-04T06:51:23.836Z,98746.46
2019-03-04T06:54:07.355Z,98738.19
2019-03-04T06:56:47.165Z,98739.38
2019-03-04T06:59:39.644Z,98735.73
2019-03-04T07:02:19.999Z,98737.03
2019-03-04T07:05:00.389Z,98733.08
2019-03-04T07:07:31.806Z,98742.44
2019-03-04T07:10:03.172Z,98727.23
2019-03-04T07:12:34.587Z,98728.47
2019-03-04T07:15:07.756Z,98725.06
2019-03-04T07:17:39.145Z,98726.66
2019-03-04T07:20:15.947Z,98720.45
2019-03-04T07:22:48.509Z,98722.18
2019-03-04T07:25:20.277Z,98718.86
2019-03-04T07:27:51.642Z,98728.73
2019-03-04T07:30:23.044Z,98730.19
2019-03-04T07:32:54.398Z,98730.23
2019-03-04T07:35:25.746Z,98723.34
2019-03-04T07:38:11.607Z,98725.58
2019-03-04T07:40:43.097Z,98734.54
2019-03-04T07:43:14.538Z,98736.28
2019-03-04T07:45:45.985Z,98730.90
2019-03-04T07:48:18.095Z,98739.42
2019-03-04T07:50:49.627Z,98732.66
2019-03-04T07:53:22.062Z,98733.86
2019-03-04T07:55:53.467Z,98728.09
2019-03-04T07:58:25.880Z,98733.94
2019-03-04T08:00:57.372Z,98741.38
2019-03-04T08:03:28.729Z,98738.75
2019-03-04T08:06:01.684Z,98732.95
2019-03-04T18:42:15.931Z,98651.13
2019-03-04T18:45:08.419Z,98647.81
2019-03-04T18:47:54.686Z,98645.59
2019-03-04T18:50:26.419Z,98650.11
2019-03-04T18:52:57.767Z,98649.41
2019-03-04T18:55:30.643Z,98646.42
2019-03-04T18:58:02.020Z,98643.00
2019-03-04T19:00:33.453Z,98645.92
2019-03-04T19:03:04.901Z,98642.92
2019-03-04T19:05:36.397Z,98635.67
2019-03-04T19:08:08.133Z,98629.42
2019-03-04T19:10:39.644Z,98624.17
2019-03-04T19:13:11.037Z,98630.15
2019-03-04T19:15:43.532Z,98627.80
2019-03-04T19:18:14.868Z,98626.27
2019-03-04T19:20:46.443Z,98628.82
2019-03-04T19:23:17.906Z,98629.19
2019-03-04T19:25:49.417Z,98630.94
2019-03-04T19:28:20.777Z,98631.50
2019-03-04T19:30:52.130Z,98636.28
2019-03-04T19:33:23.508Z,98633.09
2019-03-04T19:35:54.973Z,98635.98
2019-03-04T19:38:26.476Z,98635.81
2019-03-04T19:40:57.969Z,98631.14
2019-03-04T19:43:32.969Z,98636.67
2019-03-04T19:46:02.475Z,98634.97
2019-03-04T19:48:33.957Z,98636.48
2019-03-04T19:51:05.263Z,98637.64
2019-03-04T19:53:38.510Z,98634.06
2019-03-04T19:56:12.691Z,98633.53
2019-03-04T19:58:47.482Z,98633.77
2019-03-04T20:01:40.308Z,98634.73
2019-03-04T20:04:14.614Z,98633.12
2019-03-04T20:06:51.536Z,98643.80
2019-03-04T20:09:26.408Z,98637.82
2019-03-04T20:11:59.421Z,98630.82
2019-03-04T20:14:31.767Z,98638.01
2019-03-04T20:17:03.237Z,98642.13
2019-03-04T20:19:37.388Z,98634.38
2019-03-04T20:22:08.645Z,98637.20
2019-03-04T20:24:40.148Z,98641.15
2019-03-04T20:27:11.536Z,98643.55
2019-03-04T20:29:42.842Z,98650.50
2019-03-04T20:32:14.385Z,98645.72
2019-03-04T20:34:45.698Z,98649.39
2019-03-04T20:37:17.050Z,98648.92
2019-03-04T20:39:48.530Z,98653.22
2019-03-04T20:42:19.976Z,98651.09
2019-03-04T20:44:51.310Z,98644.05
2019-03-04T20:47:22.660Z,98651.26
2019-03-04T20:49:54.220Z,98656.05
2019-03-04T20:52:25.540Z,98659.73
2019-03-04T20:54:56.910Z,98665.73
2019-03-04T20:57:28.337Z,98664.23
2019-03-04T20:59:59.702Z,98667.20
2019-03-04T21:02:31.006Z,98674.52
2019-03-04T21:05:02.454Z,98672.70
2019-03-04T21:07:34.967Z,98667.07
2019-03-04T21:10:11.839Z,98670.56
2019-03-04T21:12:43.181Z,98670.88
2019-03-04T21:15:15.308Z,98671.89
2019-03-04T21:17:46.803Z,98665.92
2019-03-04T21:20:19.175Z,98671.41
2019-03-04T21:22:50.483Z,98664.59
2019-03-04T21:25:51.255Z,98664.94
2019-03-04T21:28:34.345Z,98662.98
2019-03-04T21:31:17.607Z,98662.31
2019-03-04T21:33:54.696Z,98674.92
2019-03-04T21:36:35.235Z,98666.67
2019-03-04T21:39:08.183Z,98677.64
2019-03-04T21:41:43.377Z,98672.30
2019-03-04T21:44:23.878Z,98672.96
2019-03-04T21:47:03.792Z,98672.65
2019-03-04T21:49:39.150Z,98673.83
2019-03-04T21:52:43.755Z,98673.13
2019-03-04T21:55:21.329Z,98675.64
2019-03-04T21:57:54.383Z,98669.00
2019-03-04T22:00:30.117Z,98666.64
2019-03-04T22:03:04.619Z,98666.00
2019-03-04T22:05:37.334Z,98673.97
2019-03-04T22:08:08.924Z,98663.03
2019-03-04T22:10:40.321Z,98664.33
2019-03-04T22:13:11.789Z,98659.69
2019-03-04T22:15:43.360Z,98656.89
2019-03-04T22:18:14.699Z,98666.50
2019-03-04T22:20:46.016Z,98669.33
2019-03-04T22:23:17.337Z,98673.31
2019-03-04T22:25:48.707Z,98667.67
2019-03-04T22:28:20.284Z,98666.69
2019-03-04T22:30:51.673Z,98657.05
2019-03-04T22:33:23.048Z,98659.91
2019-03-04T22:35:54.421Z,98665.02
2019-03-04T22:38:25.876Z,98656.08
2019-03-04T22:40:57.173Z,98650.09
2019-03-04T22:43:28.571Z,98646.11
2019-03-04T22:45:59.901Z,98644.33
2019-03-04T22:48:31.366Z,98641.83
2019-03-04T22:51:02.866Z,98643.83
2019-03-04T22:53:34.180Z,98651.77
2019-03-04T22:56:05.624Z,98660.76
2019-03-04T22:58:36.976Z,98661.39
2019-03-04T23:01:15.791Z,98656.41
2019-03-04T23:03:47.620Z,98655.09
2019-03-04T23:06:28.093Z,98650.95
2019-03-04T23:08:59.561Z,98655.41
2019-03-04T23:11:31.977Z,98660.72
2019-03-04T23:14:09.289Z,98654.08
2019-03-04T23:16:40.743Z,98657.55
2019-03-04T23:19:12.076Z,98655.73
2019-03-04T23:21:43.473Z,98650.71
2019-03-04T23:24:14.928Z,98651.89
2019-03-04T23:26:46.173Z,98656.89
2019-03-04T23:29:17.483Z,98653.53
2019-03-04T23:31:48.965Z,98650.42
2019-03-04T23:34:20.148Z,98650.71
2019-03-04T23:36:51.562Z,98646.41
2019-03-04T23:39:23.041Z,98646.91
2019-03-04T23:41:54.401Z,98646.73
2019-03-04T23:44:25.779Z,98627.78
2019-03-04T23:46:57.084Z,98627.78
2019-03-04T23:49:28.522Z,98630.09
2019-03-04T23:51:59.853Z,98635.54
2019-03-04T23:54:31.218Z,98635.41
2019-03-04T23:57:02.632Z,98628.77
2019-03-04T23:59:33.955Z,98631.69
